Chenango Lake, New York
Current Conditions -  °F | °C
As of 10:53 AM on Monday 24 Nov 2014 (Local Time) from KBGM Reporting Station
Broken Clouds Broken Clouds  
Wind Chill: 63°   Ceiling: 3700
Heat Index: 63°   Visibility: 10mi
Dew Point: 53°   Wind: 15mph
Humidity: 70%   Direction: 200°SSW
Pressure: 29.51"   Gusts: 30mph
Location:  42.5586°N, 75.5571°W
Report Text: KBGM 241553Z 20013G26KT 10SM FEW023 BKN037 17/12 A2951 RMK AO2 PK WND 21027/1511 SLP992 T01720117
Loading
Personal Weather Stations






























Interactive Weather Map New forecast layout! Learn more

10-Day Weather Forecast

Advertisements
Track Severe Weather on mobile